createdAt,value
2016-11-14T00:00:11.440Z,0
2016-11-14T00:01:11.414Z,0
2016-11-14T00:02:11.079Z,0
2016-11-14T00:03:11.051Z,0
2016-11-14T00:04:11.039Z,0
2016-11-14T00:05:11.011Z,0
2016-11-14T00:06:10.987Z,0
2016-11-14T00:07:10.966Z,0
2016-11-14T00:08:10.938Z,0
2016-11-14T00:09:10.915Z,0
2016-11-14T00:10:11.205Z,0
2016-11-14T00:11:11.185Z,0
2016-11-14T00:12:10.841Z,0
2016-11-14T00:13:10.867Z,0
2016-11-14T00:14:10.800Z,0
2016-11-14T00:15:11.090Z,0
2016-11-14T00:16:10.754Z,0
2016-11-14T00:17:11.040Z,0
2016-11-14T00:18:10.697Z,0
2016-11-14T00:19:10.679Z,0
2016-11-14T00:20:10.700Z,0
2016-11-14T00:21:10.632Z,0
2016-11-14T00:22:10.613Z,0
2016-11-14T00:23:10.586Z,0
2016-11-14T00:24:10.562Z,0
2016-11-14T00:25:10.546Z,0
2016-11-14T00:26:10.508Z,0
2016-11-14T00:27:10.492Z,0
2016-11-14T00:28:10.468Z,0
2016-11-14T00:29:10.440Z,0
2016-11-14T00:30:10.420Z,0
2016-11-14T00:31:10.394Z,0
2016-11-14T00:32:10.376Z,0
2016-11-14T00:33:10.440Z,0
2016-11-14T00:34:10.636Z,0
2016-11-14T00:35:10.622Z,0
2016-11-14T00:36:10.284Z,0
2016-11-14T00:37:10.263Z,0
2016-11-14T00:38:10.547Z,0
2016-11-14T00:39:10.212Z,0
2016-11-14T00:40:10.184Z,0
2016-11-14T00:41:10.156Z,0
2016-11-14T00:42:10.171Z,0
2016-11-14T00:43:10.154Z,0
2016-11-14T00:44:10.092Z,0
2016-11-14T00:45:10.069Z,0
2016-11-14T00:46:10.039Z,0
2016-11-14T00:47:10.640Z,0
2016-11-14T00:48:10.002Z,0
2016-11-14T00:49:10.022Z,0
2016-11-14T00:50:10.003Z,0
2016-11-14T00:51:09.922Z,0
2016-11-14T00:52:09.907Z,0
2016-11-14T00:53:10.197Z,0
2016-11-14T00:54:09.856Z,0
2016-11-14T00:55:09.839Z,0
2016-11-14T00:56:10.123Z,0
2016-11-14T00:57:09.780Z,0
2016-11-14T00:58:10.121Z,0
2016-11-14T00:59:09.736Z,0
2016-11-14T01:00:09.715Z,0
2016-11-14T01:01:09.689Z,0
2016-11-14T01:02:09.666Z,0
2016-11-14T01:03:09.638Z,0
2016-11-14T01:04:09.615Z,0
2016-11-14T01:05:09.599Z,0
2016-11-14T01:06:09.569Z,0
2016-11-14T01:07:09.859Z,0
2016-11-14T01:08:09.521Z,0
2016-11-14T01:09:09.854Z,0
2016-11-14T01:10:09.785Z,0
2016-11-14T01:11:09.452Z,0
2016-11-14T01:12:09.426Z,0
2016-11-14T01:13:09.712Z,0
2016-11-14T01:14:09.385Z,0
2016-11-14T01:15:09.981Z,0
2016-11-14T01:16:09.328Z,0
2016-11-14T01:17:09.303Z,0
2016-11-14T01:18:09.278Z,0
2016-11-14T01:19:09.256Z,0
2016-11-14T01:20:09.546Z,0
2016-11-14T01:21:09.213Z,0
2016-11-14T01:22:09.192Z,0
2016-11-14T01:23:09.167Z,0
2016-11-14T01:24:09.140Z,0
2016-11-14T01:25:09.113Z,0
2016-11-14T01:26:09.099Z,0
2016-11-14T01:27:09.071Z,0
2016-11-14T01:28:09.041Z,0
2016-11-14T01:29:09.021Z,0
2016-11-14T01:30:09.019Z,0
2016-11-14T01:31:09.485Z,0
2016-11-14T01:32:09.256Z,0
2016-11-14T01:33:08.921Z,0
2016-11-14T01:34:08.900Z,0
2016-11-14T01:35:08.874Z,0
2016-11-14T01:36:09.166Z,0
2016-11-14T01:37:08.823Z,0
2016-11-14T01:38:08.805Z,0
2016-11-14T01:39:08.780Z,0
2016-11-14T01:40:08.753Z,0
2016-11-14T01:41:08.732Z,0
2016-11-14T01:42:08.713Z,0
2016-11-14T01:43:08.681Z,0
2016-11-14T01:44:08.656Z,0
2016-11-14T01:45:08.647Z,0
2016-11-14T01:46:08.612Z,0
2016-11-14T01:47:08.596Z,0
2016-11-14T01:48:08.563Z,0
2016-11-14T01:49:08.546Z,0
2016-11-14T01:50:08.515Z,0
2016-11-14T01:51:08.492Z,0
2016-11-14T01:52:08.779Z,0
2016-11-14T01:53:08.758Z,0
2016-11-14T01:54:08.419Z,0
2016-11-14T01:55:08.395Z,0
2016-11-14T01:56:08.377Z,0
2016-11-14T01:57:08.346Z,0
2016-11-14T01:58:08.328Z,0
2016-11-14T01:59:08.303Z,0
2016-11-14T02:00:08.280Z,0
2016-11-14T02:01:08.560Z,0
2016-11-14T02:02:08.542Z,0
2016-11-14T02:03:08.513Z,0
2016-11-14T02:04:08.179Z,0
2016-11-14T02:05:08.157Z,0
2016-11-14T02:06:08.132Z,0
2016-11-14T02:07:08.111Z,0
2016-11-14T02:08:08.089Z,0
2016-11-14T02:09:08.069Z,0
2016-11-14T02:10:08.042Z,0
2016-11-14T02:11:08.018Z,0
2016-11-14T02:12:07.990Z,0
2016-11-14T02:13:08.279Z,0
2016-11-14T02:14:07.939Z,0
2016-11-14T02:15:07.923Z,0
2016-11-14T02:16:07.900Z,0
2016-11-14T02:17:07.870Z,0
2016-11-14T02:18:07.842Z,0
2016-11-14T02:19:07.822Z,0
2016-11-14T02:20:07.807Z,0
2016-11-14T02:21:07.774Z,0
2016-11-14T02:22:07.752Z,0
2016-11-14T02:23:07.724Z,0
2016-11-14T02:24:08.016Z,0
2016-11-14T02:25:07.994Z,0
2016-11-14T02:26:07.648Z,0
2016-11-14T02:27:07.636Z,0
2016-11-14T02:28:07.600Z,0
2016-11-14T02:29:07.618Z,0
2016-11-14T02:30:07.554Z,0
2016-11-14T02:31:07.856Z,0
2016-11-14T02:32:07.511Z,0
2016-11-14T02:33:07.565Z,0
2016-11-14T02:34:07.457Z,0
2016-11-14T02:35:07.443Z,0
2016-11-14T02:36:07.423Z,0
2016-11-14T02:37:07.387Z,0
2016-11-14T02:38:07.364Z,0
2016-11-14T02:39:07.654Z,0
2016-11-14T02:40:07.362Z,0
2016-11-14T02:41:07.285Z,0
2016-11-14T02:42:07.577Z,0
2016-11-14T02:43:07.234Z,0
2016-11-14T02:44:07.571Z,0
2016-11-14T02:45:07.502Z,0
2016-11-14T02:46:07.481Z,0
2016-11-14T02:47:07.141Z,0
2016-11-14T02:48:07.115Z,0
2016-11-14T02:49:07.092Z,0
2016-11-14T02:50:07.378Z,0
2016-11-14T02:51:07.048Z,0
2016-11-14T02:52:07.018Z,0
2016-11-14T02:53:06.996Z,0
2016-11-14T02:54:07.009Z,0
2016-11-14T02:55:06.973Z,0
2016-11-14T02:56:06.969Z,0
2016-11-14T02:57:06.903Z,0
2016-11-14T02:58:06.876Z,0
2016-11-14T02:59:06.849Z,0
2016-11-14T03:00:06.828Z,0
2016-11-14T03:01:06.803Z,0
2016-11-14T03:02:06.777Z,0
2016-11-14T03:03:06.757Z,0
2016-11-14T03:04:06.733Z,0
2016-11-14T03:05:06.711Z,0
2016-11-14T03:06:06.683Z,0
2016-11-14T03:07:06.683Z,0
2016-11-14T03:08:06.633Z,0
2016-11-14T03:09:06.918Z,0
2016-11-14T03:10:06.587Z,0
2016-11-14T03:11:06.581Z,0
2016-11-14T03:12:06.539Z,0
2016-11-14T03:13:06.508Z,0
2016-11-14T03:14:06.827Z,0
2016-11-14T03:15:06.496Z,0
2016-11-14T03:16:06.750Z,0
2016-11-14T03:17:06.410Z,0
2016-11-14T03:18:06.395Z,0
2016-11-14T03:19:06.363Z,0
2016-11-14T03:20:06.344Z,0
2016-11-14T03:21:06.634Z,0
2016-11-14T03:22:06.292Z,0
2016-11-14T03:23:06.269Z,0
2016-11-14T03:24:06.242Z,0
2016-11-14T03:25:06.219Z,0
2016-11-14T03:26:06.210Z,0
2016-11-14T03:27:06.171Z,0
2016-11-14T03:28:06.464Z,0
2016-11-14T03:29:06.126Z,0
2016-11-14T03:30:06.409Z,0
2016-11-14T03:31:06.476Z,0
2016-11-14T03:32:06.045Z,0
2016-11-14T03:33:06.024Z,0
2016-11-14T03:34:06.001Z,0
2016-11-14T03:35:05.979Z,0
2016-11-14T03:36:05.958Z,0
2016-11-14T03:37:05.935Z,0
2016-11-14T03:38:06.220Z,0
2016-11-14T03:39:05.881Z,0
2016-11-14T03:40:06.170Z,0
2016-11-14T03:41:05.826Z,0
2016-11-14T03:42:05.820Z,0
2016-11-14T03:43:05.781Z,0
2016-11-14T03:44:06.086Z,0
2016-11-14T03:45:05.741Z,0
2016-11-14T03:46:05.712Z,0
2016-11-14T03:47:06.003Z,0
2016-11-14T03:48:05.979Z,0
2016-11-14T03:49:05.957Z,0
2016-11-14T03:50:05.617Z,0
2016-11-14T03:51:05.585Z,0
2016-11-14T03:52:06.185Z,0
2016-11-14T03:53:05.849Z,0
2016-11-14T03:54:05.522Z,0
2016-11-14T03:55:05.852Z,0
2016-11-14T03:56:05.465Z,0
2016-11-14T03:57:05.443Z,0
2016-11-14T03:58:05.421Z,0
2016-11-14T03:59:05.402Z,0
2016-11-14T04:00:05.364Z,0
2016-11-14T04:01:05.349Z,0
2016-11-14T04:02:05.324Z,0
2016-11-14T04:03:05.300Z,0
2016-11-14T04:04:05.276Z,0
2016-11-14T04:05:05.596Z,0
2016-11-14T04:06:05.227Z,0
2016-11-14T04:07:05.198Z,0
2016-11-14T04:08:05.173Z,0
2016-11-14T04:09:05.153Z,0
2016-11-14T04:10:05.125Z,0
2016-11-14T04:11:05.412Z,0
2016-11-14T04:12:05.077Z,0
2016-11-14T04:13:05.054Z,0
2016-11-14T04:14:05.340Z,0
2016-11-14T04:15:05.005Z,0
2016-11-14T04:16:04.980Z,0
2016-11-14T04:17:04.959Z,0
2016-11-14T04:18:04.933Z,0
2016-11-14T04:19:04.907Z,0
2016-11-14T04:20:05.220Z,0
2016-11-14T04:21:04.860Z,0
2016-11-14T04:22:05.188Z,0
2016-11-14T04:23:04.809Z,0
2016-11-14T04:24:05.135Z,0
2016-11-14T04:25:05.067Z,0
2016-11-14T04:26:04.734Z,0
2016-11-14T04:27:04.711Z,0
2016-11-14T04:28:04.690Z,0
2016-11-14T04:29:04.666Z,0
2016-11-14T04:30:05.259Z,0
2016-11-14T04:31:04.617Z,0
2016-11-14T04:32:04.588Z,0
2016-11-14T04:33:04.561Z,0
2016-11-14T04:34:04.538Z,0
2016-11-14T04:35:04.515Z,0
2016-11-14T04:36:04.486Z,0
2016-11-14T04:37:04.462Z,0
2016-11-14T04:38:04.433Z,0
2016-11-14T04:39:04.725Z,0
2016-11-14T04:40:04.392Z,0
2016-11-14T04:41:04.683Z,0
2016-11-14T04:42:04.993Z,0
2016-11-14T04:43:04.314Z,0
2016-11-14T04:44:04.286Z,0
2016-11-14T04:45:04.268Z,0
2016-11-14T04:46:04.242Z,0
2016-11-14T04:47:04.218Z,0
2016-11-14T04:48:04.193Z,0
2016-11-14T04:49:04.167Z,0
2016-11-14T04:50:04.140Z,0
2016-11-14T04:51:04.120Z,0
2016-11-14T04:52:04.097Z,0
2016-11-14T04:53:04.069Z,0
2016-11-14T04:54:04.049Z,0
2016-11-14T04:55:04.334Z,0
2016-11-14T04:56:03.993Z,0
2016-11-14T04:57:03.975Z,0
2016-11-14T04:58:03.983Z,0
2016-11-14T04:59:03.928Z,0
2016-11-14T05:00:04.261Z,0
2016-11-14T05:01:03.874Z,0
2016-11-14T05:02:04.162Z,0
2016-11-14T05:03:03.825Z,0
2016-11-14T05:04:03.814Z,0
2016-11-14T05:05:03.825Z,0
2016-11-14T05:06:03.763Z,0
2016-11-14T05:07:03.735Z,0
2016-11-14T05:08:04.016Z,0
2016-11-14T05:09:04.005Z,0
2016-11-14T05:10:03.971Z,0
2016-11-14T05:11:03.635Z,0
2016-11-14T05:12:03.602Z,0
2016-11-14T05:13:03.584Z,0
2016-11-14T05:14:03.572Z,0
2016-11-14T05:15:03.530Z,0
2016-11-14T05:16:03.550Z,0
2016-11-14T05:17:03.480Z,0
2016-11-14T05:18:03.765Z,0
2016-11-14T05:19:03.435Z,0
2016-11-14T05:20:03.409Z,0
2016-11-14T05:21:03.695Z,0
2016-11-14T05:22:03.365Z,0
2016-11-14T05:23:03.349Z,0
2016-11-14T05:24:03.354Z,0
2016-11-14T05:25:03.602Z,0
2016-11-14T05:26:03.300Z,0
2016-11-14T05:27:03.547Z,0
2016-11-14T05:28:03.209Z,0
2016-11-14T05:29:03.231Z,0
2016-11-14T05:30:03.163Z,0
2016-11-14T05:31:03.136Z,0
2016-11-14T05:32:03.352Z,0
2016-11-14T05:33:03.400Z,0
2016-11-14T05:34:03.104Z,0
2016-11-14T05:35:03.037Z,0
2016-11-14T05:36:03.012Z,0
2016-11-14T05:37:02.991Z,0
2016-11-14T05:38:03.274Z,0
2016-11-14T05:39:02.935Z,0
2016-11-14T05:40:02.918Z,0
2016-11-14T05:41:02.892Z,0
2016-11-14T05:42:03.174Z,0
2016-11-14T05:43:02.845Z,0
2016-11-14T05:44:03.131Z,0
2016-11-14T05:45:02.791Z,0
2016-11-14T05:46:03.086Z,0
2016-11-14T05:47:02.745Z,0
2016-11-14T05:48:02.722Z,0
2016-11-14T05:49:02.724Z,0
2016-11-14T05:50:02.669Z,0
2016-11-14T05:51:02.647Z,0
2016-11-14T05:52:02.618Z,0
2016-11-14T05:53:02.598Z,0
2016-11-14T05:54:02.568Z,0
2016-11-14T05:55:02.557Z,0
2016-11-14T05:56:02.523Z,0
2016-11-14T05:57:02.505Z,0
2016-11-14T05:58:02.472Z,0
2016-11-14T05:59:02.445Z,0
2016-11-14T06:00:02.421Z,0
2016-11-14T06:01:02.395Z,0
2016-11-14T06:02:02.371Z,0
2016-11-14T06:03:02.352Z,0
2016-11-14T06:04:02.674Z,0
2016-11-14T06:05:02.617Z,0
2016-11-14T06:06:02.901Z,0
2016-11-14T06:07:02.246Z,0
2016-11-14T06:08:02.234Z,0
2016-11-14T06:09:02.212Z,0
2016-11-14T06:10:03.138Z,0
2016-11-14T06:11:02.773Z,0
2016-11-14T06:12:02.138Z,0
2016-11-14T06:13:02.422Z,4
2016-11-14T06:14:02.388Z,0
2016-11-14T06:15:02.055Z,0
2016-11-14T06:16:02.032Z,4
2016-11-14T06:17:02.011Z,4
2016-11-14T06:18:01.976Z,4
2016-11-14T06:19:01.958Z,4
2016-11-14T06:20:01.925Z,4
2016-11-14T06:21:01.903Z,4
2016-11-14T06:22:01.888Z,8
2016-11-14T06:23:01.850Z,8
2016-11-14T06:24:01.832Z,12
2016-11-14T06:25:01.856Z,12
2016-11-14T06:26:01.890Z,16
2016-11-14T06:27:02.065Z,20
2016-11-14T06:28:01.729Z,20
2016-11-14T06:29:01.708Z,24
2016-11-14T06:30:01.730Z,28
2016-11-14T06:31:01.655Z,36
2016-11-14T06:32:01.941Z,40
2016-11-14T06:33:01.924Z,44
2016-11-14T06:34:01.578Z,48
2016-11-14T06:35:01.611Z,60
2016-11-14T06:36:01.534Z,68
2016-11-14T06:37:01.826Z,76
2016-11-14T06:38:01.491Z,84
2016-11-14T06:39:01.456Z,96
2016-11-14T06:40:01.428Z,104
2016-11-14T06:41:02.232Z,116
2016-11-14T06:42:02.007Z,132
2016-11-14T06:43:01.360Z,144
2016-11-14T06:44:01.328Z,156
2016-11-14T06:45:01.309Z,176
2016-11-14T06:46:01.292Z,188
2016-11-14T06:47:01.573Z,208
2016-11-14T06:48:01.233Z,228
2016-11-14T06:49:01.204Z,248
2016-11-14T06:50:01.495Z,268
2016-11-14T06:51:01.472Z,288
2016-11-14T06:52:01.135Z,312
2016-11-14T06:53:01.426Z,332
2016-11-14T06:54:01.083Z,352
2016-11-14T06:55:01.060Z,372
2016-11-14T06:56:01.037Z,396
2016-11-14T06:57:01.015Z,420
2016-11-14T06:58:00.989Z,460
2016-11-14T06:59:00.961Z,480
2016-11-14T07:00:01.254Z,496
2016-11-14T07:01:00.908Z,520
2016-11-14T07:02:00.894Z,544
2016-11-14T07:03:00.862Z,576
2016-11-14T07:04:00.887Z,608
2016-11-14T07:05:00.810Z,636
2016-11-14T07:06:00.841Z,656
2016-11-14T07:07:00.812Z,700
2016-11-14T07:08:00.733Z,728
2016-11-14T07:09:00.708Z,748
2016-11-14T07:10:00.688Z,772
2016-11-14T07:11:00.661Z,796
2016-11-14T07:12:00.639Z,824
2016-11-14T07:13:00.615Z,852
2016-11-14T07:14:00.586Z,880
2016-11-14T07:15:00.875Z,912
2016-11-14T07:16:00.544Z,940
2016-11-14T07:17:00.527Z,972
2016-11-14T07:18:00.495Z,1004
2016-11-14T07:19:00.784Z,1040
2016-11-14T07:20:00.441Z,1072
2016-11-14T07:21:00.742Z,1104
2016-11-14T07:22:00.814Z,1128
2016-11-14T07:23:00.379Z,1160
2016-11-14T07:24:00.395Z,1188
2016-11-14T07:25:00.316Z,1216
2016-11-14T07:26:00.622Z,1244
2016-11-14T07:27:00.280Z,1268
2016-11-14T07:28:00.244Z,1292
2016-11-14T07:29:00.228Z,1324
2016-11-14T07:30:00.511Z,1356
2016-11-14T07:31:00.485Z,1380
2016-11-14T07:32:00.345Z,1408
2016-11-14T07:33:00.117Z,1432
2016-11-14T07:34:00.128Z,1476
2016-11-14T07:35:00.075Z,1532
2016-11-14T07:36:00.375Z,1592
2016-11-14T07:37:00.021Z,1616
2016-11-14T07:38:00.626Z,1632
2016-11-14T07:38:59.980Z,1708
2016-11-14T07:39:59.950Z,1744
2016-11-14T07:40:59.937Z,1752
2016-11-14T07:42:00.216Z,1768
2016-11-14T07:42:59.877Z,1772
2016-11-14T07:43:59.862Z,1800
2016-11-14T07:45:00.455Z,1828
2016-11-14T07:46:00.168Z,1916
2016-11-14T07:47:00.168Z,1996
2016-11-14T07:47:59.769Z,2052
2016-11-14T07:48:59.742Z,2064
2016-11-14T07:49:59.768Z,2080
2016-11-14T07:50:59.713Z,2100
2016-11-14T07:51:59.663Z,2120
2016-11-14T07:52:59.640Z,2140
2016-11-14T07:53:59.935Z,2144
2016-11-14T07:54:59.583Z,2168
2016-11-14T07:56:00.101Z,2184
2016-11-14T07:56:59.800Z,2220
2016-11-14T07:57:59.824Z,2268
2016-11-14T07:58:59.490Z,2328
2016-11-14T07:59:59.466Z,2396
2016-11-14T08:00:59.443Z,2476
2016-11-14T08:01:59.732Z,2556
2016-11-14T08:02:59.398Z,2656
2016-11-14T08:03:59.371Z,2696
2016-11-14T08:04:59.345Z,2744
2016-11-14T08:05:59.372Z,2796
2016-11-14T08:06:59.292Z,2888
2016-11-14T08:07:59.325Z,2988
2016-11-14T08:08:59.258Z,3120
2016-11-14T08:09:59.536Z,3252
2016-11-14T08:10:59.196Z,3380
2016-11-14T08:11:59.179Z,3508
2016-11-14T08:12:59.153Z,3664
2016-11-14T08:13:59.132Z,3824
2016-11-14T08:14:59.104Z,3896
2016-11-14T08:15:59.083Z,3968
2016-11-14T08:16:59.065Z,3964
2016-11-14T08:17:59.038Z,3896
2016-11-14T08:18:59.017Z,3780
2016-11-14T08:19:59.011Z,3748
2016-11-14T08:20:58.965Z,3684
2016-11-14T08:21:58.944Z,3560
2016-11-14T08:22:59.239Z,3560
2016-11-14T08:23:58.909Z,3468
2016-11-14T08:24:58.872Z,3368
2016-11-14T08:25:58.853Z,3304
2016-11-14T08:26:59.142Z,3276
2016-11-14T08:27:58.802Z,3224
2016-11-14T08:28:58.779Z,3208
2016-11-14T08:29:59.081Z,3136
2016-11-14T08:30:58.738Z,3364
2016-11-14T08:31:58.737Z,3412
2016-11-14T08:32:58.687Z,3348
2016-11-14T08:33:58.983Z,3284
2016-11-14T08:34:58.643Z,3228
2016-11-14T08:35:58.621Z,3156
2016-11-14T08:36:58.605Z,3128
2016-11-14T08:37:58.585Z,3072
2016-11-14T08:38:58.555Z,3028
2016-11-14T08:39:58.531Z,2952
2016-11-14T08:40:58.511Z,2968
2016-11-14T08:41:58.500Z,2900
2016-11-14T08:42:58.818Z,2880
2016-11-14T08:43:58.453Z,2968
2016-11-14T08:44:58.451Z,3108
2016-11-14T08:45:58.397Z,3164
2016-11-14T08:46:58.376Z,3224
2016-11-14T08:47:58.347Z,3136
2016-11-14T08:48:58.342Z,3228
2016-11-14T08:49:58.304Z,3276
2016-11-14T08:50:58.294Z,3288
2016-11-14T08:51:58.267Z,3312
2016-11-14T08:52:58.256Z,3392
2016-11-14T08:53:58.225Z,3500
2016-11-14T08:54:58.199Z,3636
2016-11-14T08:55:58.177Z,3756
2016-11-14T08:56:58.156Z,3852
2016-11-14T08:57:58.136Z,3956
2016-11-14T08:58:58.733Z,4136
2016-11-14T08:59:58.086Z,4368
2016-11-14T09:00:58.380Z,4644
2016-11-14T09:01:58.352Z,4932
2016-11-14T09:02:58.026Z,5260
2016-11-14T09:03:58.325Z,5404
2016-11-14T09:04:57.988Z,5756
2016-11-14T09:05:57.960Z,6268
2016-11-14T09:06:57.956Z,6580
2016-11-14T09:07:57.920Z,6936
2016-11-14T09:08:57.924Z,7076
2016-11-14T09:09:57.879Z,7552
2016-11-14T09:10:57.859Z,8020
2016-11-14T09:11:57.839Z,8260
2016-11-14T09:12:58.115Z,8556
2016-11-14T09:13:57.789Z,8752
2016-11-14T09:14:58.083Z,9008
2016-11-14T09:15:58.054Z,9252
2016-11-14T09:16:57.725Z,9864
2016-11-14T09:17:57.702Z,13236
2016-11-14T09:18:57.683Z,16576
2016-11-14T09:19:58.285Z,11028
2016-11-14T09:20:57.645Z,10348
2016-11-14T09:21:57.929Z,10112
2016-11-14T09:22:57.916Z,12096
2016-11-14T09:23:57.584Z,14648
2016-11-14T09:24:57.577Z,14476
2016-11-14T09:25:57.550Z,14288
2016-11-14T09:26:57.526Z,16064
2016-11-14T09:27:57.514Z,13896
2016-11-14T09:28:57.492Z,11000
2016-11-14T09:29:57.546Z,10816
2016-11-14T09:30:57.766Z,10908
2016-11-14T09:31:57.956Z,10980
2016-11-14T09:32:57.453Z,11016
2016-11-14T09:33:57.409Z,11132
2016-11-14T09:34:57.383Z,11572
2016-11-14T09:35:57.368Z,13212
2016-11-14T09:36:57.346Z,13564
2016-11-14T09:37:57.349Z,15160
2016-11-14T09:38:57.316Z,17152
2016-11-14T09:39:57.304Z,17760
2016-11-14T09:40:57.285Z,18112
2016-11-14T09:41:57.266Z,16800
2016-11-14T09:42:57.261Z,15488
2016-11-14T09:43:57.245Z,17568
2016-11-14T09:44:57.539Z,19744
2016-11-14T09:45:57.521Z,19392
2016-11-14T09:46:57.194Z,17792
2016-11-14T09:47:57.173Z,17408
2016-11-14T09:48:57.162Z,16416
2016-11-14T09:49:57.152Z,15488
2016-11-14T09:50:57.130Z,15840
2016-11-14T09:51:57.116Z,14380
2016-11-14T09:52:57.098Z,13680
2016-11-14T09:53:57.092Z,12612
2016-11-14T09:54:57.392Z,12228
2016-11-14T09:55:57.058Z,12332
2016-11-14T09:56:57.042Z,12404
2016-11-14T09:57:57.031Z,12620
2016-11-14T09:58:57.013Z,11760
2016-11-14T09:59:56.998Z,10316
2016-11-14T10:00:56.997Z,10280
2016-11-14T10:01:56.971Z,10544
2016-11-14T10:02:56.958Z,10884
2016-11-14T10:03:57.261Z,11640
2016-11-14T10:04:56.929Z,10328
2016-11-14T10:05:56.925Z,10552
2016-11-14T10:06:56.902Z,10408
2016-11-14T10:07:56.885Z,10208
2016-11-14T10:08:57.185Z,10316
2016-11-14T10:09:56.857Z,11092
2016-11-14T10:10:57.149Z,11380
2016-11-14T10:11:56.831Z,12096
2016-11-14T10:12:56.811Z,11656
2016-11-14T10:13:56.796Z,11604
2016-11-14T10:14:56.779Z,11552
2016-11-14T10:15:56.801Z,11896
2016-11-14T10:16:56.757Z,12204
2016-11-14T10:17:56.730Z,12448
2016-11-14T10:18:56.720Z,12624
2016-11-14T10:19:56.703Z,12128
2016-11-14T10:20:56.685Z,12088
2016-11-14T10:21:56.672Z,11784
2016-11-14T10:22:56.972Z,11776
2016-11-14T10:23:56.682Z,12240
2016-11-14T10:24:56.973Z,12028
2016-11-14T10:25:56.608Z,12172
2016-11-14T10:26:56.589Z,12464
2016-11-14T10:27:56.890Z,12920
2016-11-14T10:28:56.566Z,13140
2016-11-14T10:29:57.199Z,13684
2016-11-14T10:30:56.551Z,13164
2016-11-14T10:31:56.526Z,12892
2016-11-14T10:32:56.829Z,13640
2016-11-14T10:33:56.800Z,13772
2016-11-14T10:34:56.472Z,14500
2016-11-14T10:35:56.776Z,13272
2016-11-14T10:36:56.448Z,15596
2016-11-14T10:37:56.744Z,14720
2016-11-14T10:38:56.722Z,14748
2016-11-14T10:39:56.397Z,17824
2016-11-14T10:40:56.382Z,14128
2016-11-14T10:41:56.363Z,13852
2016-11-14T10:42:56.351Z,13368
2016-11-14T10:43:56.342Z,13448
2016-11-14T10:44:56.654Z,13180
2016-11-14T10:45:56.312Z,13604
2016-11-14T10:46:56.290Z,13492
2016-11-14T10:47:56.912Z,13320
2016-11-14T10:48:56.268Z,13392
2016-11-14T10:49:56.257Z,13296
2016-11-14T10:50:56.242Z,13208
2016-11-14T10:51:56.545Z,13472
2016-11-14T10:52:56.522Z,13724
2016-11-14T10:53:56.190Z,13976
2016-11-14T10:54:56.180Z,14248
2016-11-14T10:55:56.483Z,14540
2016-11-14T10:56:56.150Z,14408
2016-11-14T10:57:56.136Z,14012
2016-11-14T10:58:56.127Z,13212
2016-11-14T10:59:56.105Z,12484
2016-11-14T11:00:56.718Z,11896
2016-11-14T11:01:56.080Z,11652
2016-11-14T11:02:56.098Z,11656
2016-11-14T11:03:56.102Z,11996
2016-11-14T11:04:56.347Z,12476
2016-11-14T11:05:56.024Z,12516
2016-11-14T11:06:56.324Z,12720
2016-11-14T11:07:55.997Z,12788
2016-11-14T11:08:56.293Z,14752
2016-11-14T11:09:56.364Z,12752
2016-11-14T11:10:56.289Z,12628
2016-11-14T11:11:55.933Z,20320
2016-11-14T11:12:55.927Z,13344
2016-11-14T11:13:55.907Z,12892
2016-11-14T11:14:55.907Z,13696
2016-11-14T11:15:55.886Z,13084
2016-11-14T11:16:55.864Z,13120
2016-11-14T11:17:55.854Z,12756
2016-11-14T11:18:55.843Z,12536
2016-11-14T11:19:55.829Z,12568
2016-11-14T11:20:55.808Z,12628
2016-11-14T11:21:55.800Z,12432
2016-11-14T11:22:55.779Z,12204
2016-11-14T11:23:55.803Z,11892
2016-11-14T11:24:55.754Z,11112
2016-11-14T11:25:55.739Z,10484
2016-11-14T11:26:55.724Z,10360
2016-11-14T11:27:55.719Z,10284
2016-11-14T11:28:56.016Z,10244
2016-11-14T11:29:55.995Z,10256
2016-11-14T11:30:56.062Z,10380
2016-11-14T11:31:55.858Z,10592
2016-11-14T11:32:55.642Z,10916
2016-11-14T11:33:55.944Z,11028
2016-11-14T11:34:55.610Z,10792
2016-11-14T11:35:55.593Z,10236
2016-11-14T11:36:55.584Z,10300
2016-11-14T11:37:55.573Z,10500
2016-11-14T11:38:55.552Z,10632
2016-11-14T11:39:55.535Z,10944
2016-11-14T11:40:55.558Z,11612
2016-11-14T11:41:55.616Z,12384
2016-11-14T11:42:55.495Z,12556
2016-11-14T11:43:55.481Z,11532
2016-11-14T11:44:55.469Z,11248
2016-11-14T11:45:55.462Z,10824
2016-11-14T11:46:55.747Z,11980
2016-11-14T11:47:55.426Z,10728
2016-11-14T11:48:55.408Z,9192
2016-11-14T11:49:55.713Z,9148
2016-11-14T11:50:55.382Z,9236
2016-11-14T11:51:55.392Z,8824
2016-11-14T11:52:55.366Z,8180
2016-11-14T11:53:55.674Z,7404
2016-11-14T11:54:55.329Z,7244
2016-11-14T11:55:55.307Z,7116
2016-11-14T11:56:55.920Z,6976
2016-11-14T11:57:55.287Z,6904
2016-11-14T11:58:55.254Z,7108
2016-11-14T11:59:55.256Z,7012
2016-11-14T12:00:55.279Z,6920
2016-11-14T12:01:55.211Z,6932
2016-11-14T12:02:55.827Z,6844
2016-11-14T12:03:55.223Z,7036
2016-11-14T12:04:55.485Z,7012
2016-11-14T12:05:55.153Z,6980
2016-11-14T12:06:55.135Z,6708
2016-11-14T12:07:55.116Z,6480
2016-11-14T12:08:55.416Z,6240
2016-11-14T12:09:55.088Z,5752
2016-11-14T12:10:55.387Z,5296
2016-11-14T12:11:55.087Z,4976
2016-11-14T12:12:55.043Z,4772
2016-11-14T12:13:55.027Z,4708
2016-11-14T12:14:55.010Z,4740
2016-11-14T12:15:54.987Z,4672
2016-11-14T12:16:55.285Z,4496
2016-11-14T12:17:54.963Z,4420
2016-11-14T12:18:54.987Z,4420
2016-11-14T12:19:54.926Z,4376
2016-11-14T12:20:54.907Z,4328
2016-11-14T12:21:54.896Z,4308
2016-11-14T12:22:54.878Z,4364
2016-11-14T12:23:55.492Z,4464
2016-11-14T12:24:54.845Z,4612
2016-11-14T12:25:54.828Z,4736
2016-11-14T12:26:54.809Z,4780
2016-11-14T12:27:54.797Z,4372
2016-11-14T12:28:54.779Z,4376
2016-11-14T12:29:54.760Z,4068
2016-11-14T12:30:54.743Z,3852
2016-11-14T12:31:55.037Z,4088
2016-11-14T12:32:54.712Z,4400
2016-11-14T12:33:54.690Z,4496
2016-11-14T12:34:54.992Z,4596
2016-11-14T12:35:54.660Z,4692
2016-11-14T12:36:54.648Z,4712
2016-11-14T12:37:54.621Z,4772
2016-11-14T12:38:54.625Z,4848
2016-11-14T12:39:54.904Z,4888
2016-11-14T12:40:54.579Z,4812
2016-11-14T12:41:54.553Z,4852
2016-11-14T12:42:54.568Z,4848
2016-11-14T12:43:54.517Z,4852
2016-11-14T12:44:54.504Z,4672
2016-11-14T12:45:54.509Z,4216
2016-11-14T12:46:54.815Z,4432
2016-11-14T12:47:54.457Z,4596
2016-11-14T12:48:54.753Z,4756
2016-11-14T12:49:54.423Z,4828
2016-11-14T12:50:54.404Z,4680
2016-11-14T12:51:54.388Z,4564
2016-11-14T12:52:54.369Z,4424
2016-11-14T12:53:54.358Z,4272
2016-11-14T12:54:54.333Z,4276
2016-11-14T12:55:54.635Z,4348
2016-11-14T12:56:54.615Z,4524
2016-11-14T12:57:54.597Z,4536
2016-11-14T12:58:54.271Z,4380
2016-11-14T12:59:54.255Z,4320
2016-11-14T13:00:54.241Z,4432
2016-11-14T13:01:54.528Z,4728
2016-11-14T13:02:54.201Z,5124
2016-11-14T13:03:54.186Z,5364
2016-11-14T13:04:54.182Z,5632
2016-11-14T13:05:54.463Z,5804
2016-11-14T13:06:54.139Z,5844
2016-11-14T13:07:54.118Z,5828
2016-11-14T13:08:54.100Z,5872
2016-11-14T13:09:54.079Z,6008
2016-11-14T13:10:54.067Z,6116
2016-11-14T13:11:54.703Z,6156
2016-11-14T13:12:54.042Z,6256
2016-11-14T13:13:54.038Z,6356
2016-11-14T13:14:54.319Z,6444
2016-11-14T13:15:53.992Z,6668
2016-11-14T13:16:53.976Z,6812
2016-11-14T13:17:53.947Z,6952
2016-11-14T13:18:53.937Z,7140
2016-11-14T13:19:53.918Z,7248
2016-11-14T13:20:53.902Z,7348
2016-11-14T13:21:53.884Z,7404
2016-11-14T13:22:53.867Z,7332
2016-11-14T13:23:53.846Z,7260
2016-11-14T13:24:54.176Z,7192
2016-11-14T13:25:54.127Z,7072
2016-11-14T13:26:53.801Z,6964
2016-11-14T13:27:53.783Z,6852
2016-11-14T13:28:53.769Z,6772
2016-11-14T13:29:54.059Z,6820
2016-11-14T13:30:53.736Z,6812
2016-11-14T13:32:08.917Z,6936
2016-11-14T13:32:53.702Z,6980
2016-11-14T13:33:53.683Z,7076
2016-11-14T13:34:53.670Z,7112
2016-11-14T13:35:53.662Z,7156
2016-11-14T13:36:53.950Z,7236
2016-11-14T13:37:53.622Z,7352
2016-11-14T13:38:53.914Z,7444
2016-11-14T13:39:53.586Z,7644
2016-11-14T13:40:53.570Z,7908
2016-11-14T13:41:53.864Z,7492
2016-11-14T13:42:53.547Z,7048
2016-11-14T13:43:53.559Z,6872
2016-11-14T13:44:53.522Z,6780
2016-11-14T13:45:53.808Z,6736
2016-11-14T13:46:53.481Z,6600
2016-11-14T13:47:53.495Z,6428
2016-11-14T13:48:53.441Z,6216
2016-11-14T13:49:53.431Z,6000
2016-11-14T13:50:53.440Z,5776
2016-11-14T13:51:53.708Z,5516
2016-11-14T13:52:53.381Z,5236
2016-11-14T13:53:53.365Z,4960